createdAt,value
2022-11-04T00:01:40.732Z,78.69
2022-11-04T00:04:11.247Z,78.39
2022-11-04T00:06:39.874Z,78.65
2022-11-04T00:09:09.876Z,78.99
2022-11-04T00:11:37.053Z,78.01
2022-11-04T00:14:06.040Z,78.11
2022-11-04T00:16:33.381Z,78.05
2022-11-04T00:19:00.786Z,78.17
2022-11-04T00:21:29.554Z,78.16
2022-11-04T00:23:56.227Z,77.55
2022-11-04T00:26:23.337Z,76.48
2022-11-04T00:28:50.104Z,77.09
2022-11-04T00:31:17.224Z,76.68
2022-11-04T00:33:43.904Z,77.21
2022-11-04T00:36:10.829Z,77.54
2022-11-04T00:38:38.862Z,77.05
2022-11-04T00:41:05.953Z,78.22
2022-11-04T00:43:32.666Z,75.96
2022-11-04T00:45:59.682Z,77.30
2022-11-04T00:48:26.380Z,76.52
2022-11-04T00:50:53.119Z,77.13
2022-11-04T00:53:19.771Z,77.25
2022-11-04T00:55:48.007Z,77.13
2022-11-04T00:58:14.685Z,77.21
2022-11-04T01:00:41.612Z,77.30
2022-11-04T01:03:08.922Z,77.19
2022-11-04T01:05:37.882Z,76.56
2022-11-04T01:08:04.925Z,76.88
2022-11-04T01:10:32.082Z,76.11
2022-11-04T01:13:00.085Z,75.47
2022-11-04T01:15:27.341Z,75.27
2022-11-04T01:17:54.086Z,76.47
2022-11-04T01:20:20.865Z,74.81
2022-11-04T01:22:47.798Z,74.37
2022-11-04T01:25:14.779Z,74.42
2022-11-04T01:27:41.478Z,73.97
2022-11-04T01:30:11.998Z,73.38
2022-11-04T01:32:39.687Z,74.46
2022-11-04T01:35:07.899Z,74.46
2022-11-04T01:37:35.233Z,74.79
2022-11-04T01:40:01.938Z,74.01
2022-11-04T01:42:28.701Z,74.08
2022-11-04T01:44:58.428Z,75.07
2022-11-04T01:47:36.790Z,74.15
2022-11-04T01:50:10.192Z,74.00
2022-11-04T01:52:46.663Z,73.71
2022-11-04T01:55:21.067Z,74.15
2022-11-04T01:57:53.001Z,73.37
2022-11-04T02:00:20.297Z,73.08
2022-11-04T02:02:58.685Z,74.19
2022-11-04T02:05:26.078Z,73.77
2022-11-04T02:07:56.911Z,75.52
2022-11-04T02:10:27.905Z,74.52
2022-11-04T02:12:56.765Z,73.93
2022-11-04T02:15:35.444Z,75.10
2022-11-04T02:18:38.767Z,73.88
2022-11-04T02:21:48.996Z,73.40
2022-11-04T02:24:46.569Z,73.37
2022-11-04T02:27:30.097Z,73.50
2022-11-04T02:30:06.733Z,73.75
2022-11-04T02:32:57.708Z,74.53
2022-11-04T02:35:38.487Z,74.39
2022-11-04T02:38:18.434Z,75.24
2022-11-04T02:41:00.191Z,74.92
2022-11-04T02:43:38.719Z,74.81
2022-11-04T02:46:18.408Z,75.63
2022-11-04T02:48:49.826Z,74.34
2022-11-04T02:51:25.329Z,74.69
2022-11-04T02:54:05.064Z,73.87
2022-11-04T02:56:40.768Z,74.68
2022-11-04T02:59:18.651Z,73.97
2022-11-04T03:01:51.006Z,75.12
2022-11-04T03:04:27.601Z,73.78
2022-11-04T03:06:59.232Z,73.77
2022-11-04T03:09:29.769Z,73.77
2022-11-04T03:12:05.773Z,73.65
2022-11-04T03:14:41.176Z,73.86
2022-11-04T03:17:19.583Z,73.38
2022-11-04T03:19:53.692Z,74.12
2022-11-04T03:22:25.093Z,73.74
2022-11-04T03:24:52.989Z,74.21
2022-11-04T03:27:27.081Z,74.37
2022-11-04T03:30:03.123Z,74.58
2022-11-04T03:32:43.973Z,75.18
2022-11-04T03:35:13.499Z,75.07
2022-11-04T03:37:40.466Z,75.51
2022-11-04T03:40:10.343Z,76.00
2022-11-04T03:42:49.769Z,76.18
2022-11-04T03:45:16.929Z,76.42
2022-11-04T03:47:45.511Z,76.03
2022-11-04T03:50:26.198Z,76.87
2022-11-04T03:52:54.225Z,76.51
2022-11-04T03:55:24.496Z,75.97
2022-11-04T03:58:03.037Z,77.00
2022-11-04T04:00:42.329Z,76.64
2022-11-04T04:03:18.704Z,76.99
2022-11-04T04:05:55.266Z,76.40
2022-11-04T04:08:35.816Z,76.59
2022-11-04T04:11:11.663Z,77.47
2022-11-04T04:13:49.590Z,76.54
2022-11-04T04:16:27.048Z,76.34
2022-11-04T04:19:02.933Z,77.93
2022-11-04T04:21:42.256Z,77.50
2022-11-04T04:24:15.485Z,78.16
2022-11-04T04:26:45.571Z,78.63
2022-11-04T04:29:15.281Z,77.52
2022-11-04T04:31:42.201Z,78.34
2022-11-04T04:34:10.739Z,79.50
2022-11-04T04:36:46.724Z,79.03
2022-11-04T04:39:19.309Z,78.69
2022-11-04T04:41:48.423Z,78.40
2022-11-04T04:44:23.538Z,78.33
2022-11-04T04:46:55.552Z,79.00
2022-11-04T04:49:23.826Z,78.77
2022-11-04T04:51:50.749Z,78.79
2022-11-04T04:54:17.516Z,79.01
2022-11-04T04:56:44.828Z,78.87
2022-11-04T04:59:11.782Z,79.20
2022-11-04T05:01:38.617Z,77.42
2022-11-04T05:04:05.900Z,80.46
2022-11-04T05:06:34.292Z,80.29
2022-11-04T05:09:01.023Z,80.63
2022-11-04T05:11:27.975Z,81.39
2022-11-04T05:13:55.152Z,81.66
2022-11-04T05:16:22.357Z,81.93
2022-11-04T05:18:51.384Z,82.57
2022-11-04T05:21:18.405Z,82.70
2022-11-04T05:23:47.194Z,83.34
2022-11-04T05:26:13.873Z,83.28
2022-11-04T05:28:40.916Z,82.23
2022-11-04T05:31:07.924Z,82.13
2022-11-04T05:33:34.725Z,81.63
2022-11-04T05:36:10.200Z,81.41
2022-11-04T05:38:37.403Z,81.55
2022-11-04T05:41:07.251Z,83.01
2022-11-04T05:43:35.217Z,82.87
2022-11-04T05:46:02.220Z,82.92
2022-11-04T05:48:29.414Z,83.16
2022-11-04T05:50:56.632Z,84.09
2022-11-04T05:53:23.526Z,84.88
2022-11-04T05:55:50.594Z,85.35
2022-11-04T05:58:18.660Z,85.25
2022-11-04T06:00:45.341Z,85.73
2022-11-04T06:03:15.333Z,85.56
2022-11-04T06:05:43.338Z,85.21
2022-11-04T06:08:10.738Z,84.70
2022-11-04T06:10:37.774Z,84.10
2022-11-04T06:13:04.507Z,83.82
2022-11-04T06:15:32.580Z,84.33
2022-11-04T06:17:59.268Z,83.58
2022-11-04T06:20:26.275Z,83.31
2022-11-04T06:22:53.003Z,83.08
2022-11-04T06:25:20.410Z,83.17
2022-11-04T06:27:47.374Z,83.07
2022-11-04T06:30:14.454Z,83.07
2022-11-04T06:32:42.799Z,83.20
2022-11-04T06:35:09.800Z,83.21
2022-11-04T06:37:36.557Z,83.36
2022-11-04T06:40:04.122Z,84.78
2022-11-04T06:42:32.620Z,84.47
2022-11-04T06:44:59.323Z,84.61
2022-11-04T06:47:26.049Z,85.42
2022-11-04T06:49:54.144Z,86.46
2022-11-04T06:52:21.124Z,86.02
2022-11-04T06:54:47.836Z,86.26
2022-11-04T06:57:17.179Z,86.24
2022-11-04T06:59:43.890Z,85.07
2022-11-04T07:02:11.310Z,84.49
2022-11-04T07:04:38.476Z,84.79
2022-11-04T07:07:06.788Z,84.86
2022-11-04T07:09:33.824Z,85.76
2022-11-04T07:12:00.712Z,86.24
2022-11-04T07:14:27.998Z,85.94
2022-11-04T07:17:00.920Z,86.56
2022-11-04T07:19:27.813Z,85.80
2022-11-04T07:21:54.537Z,86.00
2022-11-04T07:24:23.009Z,85.30
2022-11-04T07:26:49.843Z,84.91
2022-11-04T07:29:16.798Z,84.15
2022-11-04T07:31:44.089Z,84.16
2022-11-04T07:34:10.820Z,84.21
2022-11-04T07:36:37.957Z,82.54
2022-11-04T07:39:04.800Z,83.16
2022-11-04T07:41:33.782Z,82.87
2022-11-04T07:44:00.505Z,82.62
2022-11-04T07:46:27.487Z,83.00
2022-11-04T07:48:57.460Z,82.89
2022-11-04T07:51:24.753Z,79.96
2022-11-04T07:53:51.660Z,80.88
2022-11-04T07:56:18.913Z,81.60
2022-11-04T07:58:47.860Z,81.75
2022-11-04T08:01:18.072Z,81.54
2022-11-04T08:03:45.568Z,81.92
2022-11-04T08:06:14.830Z,80.73
2022-11-04T08:08:41.632Z,79.51
2022-11-04T08:11:17.064Z,80.67
2022-11-04T08:13:47.160Z,80.67
2022-11-04T08:16:17.198Z,81.17
2022-11-04T08:18:44.990Z,80.00
2022-11-04T08:21:13.158Z,80.25
2022-11-04T08:23:40.458Z,79.12
2022-11-04T08:26:09.759Z,78.75
2022-11-04T08:28:38.397Z,78.30
2022-11-04T08:31:10.536Z,78.45
2022-11-04T08:33:38.519Z,78.56
2022-11-04T08:36:09.089Z,78.50
2022-11-04T08:38:36.891Z,78.30
2022-11-04T08:41:06.725Z,78.06
2022-11-04T08:43:34.806Z,76.89
2022-11-04T08:46:07.220Z,76.37
2022-11-04T08:48:35.452Z,76.82
2022-11-04T08:51:04.968Z,78.44
2022-11-04T08:53:32.706Z,79.19
2022-11-04T08:55:59.558Z,76.53
2022-11-04T08:58:26.428Z,77.22
2022-11-04T09:00:53.168Z,76.12
2022-11-04T09:03:21.944Z,75.66
2022-11-04T09:05:48.731Z,76.01
2022-11-04T09:08:17.622Z,73.68
2022-11-04T09:10:48.221Z,75.56
2022-11-04T09:13:17.612Z,74.70
2022-11-04T09:15:45.392Z,73.39
2022-11-04T09:18:12.849Z,75.38
2022-11-04T09:20:41.220Z,76.10
2022-11-04T09:23:09.551Z,75.73
2022-11-04T09:25:37.383Z,74.62
2022-11-04T09:28:04.984Z,75.82
2022-11-04T09:30:32.560Z,75.21
2022-11-04T09:32:59.967Z,75.63
2022-11-04T09:35:27.760Z,76.26
2022-11-04T09:37:56.100Z,76.12
2022-11-04T09:40:25.752Z,76.27
2022-11-04T09:43:14.096Z,76.40
2022-11-04T09:45:43.757Z,75.83
2022-11-04T09:48:26.365Z,76.64
2022-11-04T09:50:58.704Z,75.37
2022-11-04T09:53:40.628Z,74.29
2022-11-04T09:56:16.938Z,75.00
2022-11-04T09:58:44.355Z,73.99
2022-11-04T10:01:28.828Z,74.70
2022-11-04T10:04:20.784Z,73.40
2022-11-04T10:07:14.457Z,72.76
2022-11-04T10:10:00.498Z,73.03
2022-11-04T10:12:51.421Z,71.69
2022-11-04T10:15:47.634Z,72.32
2022-11-04T10:18:35.115Z,70.77
2022-11-04T10:21:16.937Z,68.31
2022-11-04T10:23:49.874Z,69.07
2022-11-04T10:26:30.152Z,68.26
2022-11-04T10:29:04.561Z,67.92
2022-11-04T10:31:31.854Z,67.52
2022-11-04T10:34:12.269Z,68.46
2022-11-04T10:36:40.795Z,68.44
2022-11-04T10:39:22.953Z,69.14
2022-11-04T10:41:51.389Z,68.47
2022-11-04T10:44:24.447Z,68.46
2022-11-04T10:47:02.906Z,68.01
2022-11-04T10:52:48.853Z,66.89
2022-11-04T10:55:41.089Z,66.37
2022-11-04T10:58:21.348Z,66.54
2022-11-04T11:00:48.339Z,66.96
2022-11-04T11:03:29.226Z,66.94
2022-11-04T11:06:14.612Z,64.93
2022-11-04T11:08:44.007Z,64.57
2022-11-04T11:11:13.910Z,65.54
2022-11-04T11:14:05.474Z,63.95
2022-11-04T11:16:38.944Z,64.71
2022-11-04T11:19:18.002Z,64.82
2022-11-04T11:21:48.095Z,65.32
2022-11-04T11:24:21.545Z,65.97
2022-11-04T11:26:52.818Z,65.00
2022-11-04T11:29:40.711Z,65.10
2022-11-04T11:32:31.426Z,64.82
2022-11-04T11:34:58.967Z,65.61
2022-11-04T11:37:26.232Z,65.15
2022-11-04T11:39:53.328Z,65.02
2022-11-04T11:42:20.309Z,65.56
2022-11-04T11:44:53.270Z,64.52
2022-11-04T11:47:33.899Z,64.63
2022-11-04T11:50:17.112Z,65.09
2022-11-04T11:52:45.120Z,65.04
2022-11-04T11:55:18.871Z,64.28
2022-11-04T12:01:03.161Z,63.70
2022-11-04T12:09:41.989Z,62.78
2022-11-04T12:12:30.511Z,61.70
2022-11-04T12:15:23.306Z,62.24
2022-11-04T12:18:20.116Z,61.35
2022-11-04T12:21:01.273Z,61.68
2022-11-04T12:23:39.293Z,60.56
2022-11-04T12:26:23.877Z,60.67
2022-11-04T12:29:13.576Z,60.28
2022-11-04T12:31:58.702Z,60.78
2022-11-04T12:34:48.012Z,61.05
2022-11-04T12:37:51.596Z,59.70
2022-11-04T12:40:25.272Z,58.74
2022-11-04T12:43:20.646Z,58.83
2022-11-04T12:46:10.745Z,58.65
2022-11-04T12:49:08.040Z,59.19
2022-11-04T12:52:23.782Z,57.70
2022-11-04T12:55:21.963Z,61.09
2022-11-04T12:58:06.284Z,60.53
2022-11-04T13:00:39.099Z,60.46
2022-11-04T13:03:15.986Z,61.60
2022-11-04T13:05:57.663Z,61.38
2022-11-04T13:08:38.662Z,61.49
2022-11-04T13:11:18.259Z,61.37
2022-11-04T13:13:45.817Z,62.00
2022-11-04T13:16:13.353Z,61.40
2022-11-04T13:18:43.459Z,60.46
2022-11-04T13:21:17.207Z,60.94
2022-11-04T13:23:54.651Z,60.85
2022-11-04T13:26:21.465Z,61.96
2022-11-04T13:29:02.955Z,61.83
2022-11-04T13:31:51.222Z,62.62
2022-11-04T13:34:42.196Z,61.04
2022-11-04T13:37:25.292Z,60.40
2022-11-04T13:40:01.637Z,60.43
2022-11-04T13:42:54.783Z,62.01
2022-11-04T13:45:49.802Z,62.45
2022-11-04T13:48:21.644Z,61.14
2022-11-04T13:51:00.021Z,61.24
2022-11-04T13:53:51.453Z,61.70
2022-11-04T13:56:35.029Z,60.78
2022-11-04T13:59:23.448Z,62.92
2022-11-04T14:02:39.240Z,64.46
2022-11-04T14:06:04.589Z,63.65
2022-11-04T14:08:33.152Z,64.85
2022-11-04T14:11:09.536Z,64.61
2022-11-04T14:14:03.494Z,66.42
2022-11-04T14:16:45.233Z,65.63
2022-11-04T14:19:49.952Z,66.52
2022-11-04T14:22:18.969Z,67.89
2022-11-04T14:24:56.249Z,67.36
2022-11-04T14:27:33.702Z,67.14
2022-11-04T14:30:02.509Z,67.63
2022-11-04T14:32:41.303Z,67.74
2022-11-04T14:35:18.510Z,65.90
2022-11-04T14:37:55.803Z,67.32
2022-11-04T14:40:44.496Z,67.42
2022-11-04T14:43:31.083Z,69.16
2022-11-04T14:46:02.407Z,67.34
2022-11-04T14:48:31.654Z,67.75
2022-11-04T14:50:58.727Z,68.47
2022-11-04T14:56:24.626Z,68.55
2022-11-04T14:58:56.629Z,68.69
2022-11-04T15:01:32.948Z,70.32
2022-11-04T15:04:14.573Z,69.59
2022-11-04T15:06:54.818Z,68.91
2022-11-04T15:09:26.417Z,69.08
2022-11-04T15:12:10.742Z,69.79
2022-11-04T15:14:37.836Z,70.33
2022-11-04T15:17:06.247Z,70.75
2022-11-04T15:19:35.909Z,73.19
2022-11-04T15:22:05.965Z,70.94
2022-11-04T15:24:35.166Z,71.83
2022-11-04T15:27:06.253Z,72.83
2022-11-04T15:29:33.282Z,71.21
2022-11-04T15:32:04.917Z,74.81
2022-11-04T15:34:36.115Z,73.28
2022-11-04T15:37:06.466Z,74.95
2022-11-04T15:39:41.565Z,71.47
2022-11-04T15:42:18.115Z,69.51
2022-11-04T15:44:50.096Z,69.42
2022-11-04T15:47:24.573Z,71.10
2022-11-04T15:50:01.281Z,73.53
2022-11-04T15:52:29.813Z,73.47
2022-11-04T15:54:59.724Z,74.42
2022-11-04T15:57:33.239Z,75.63
2022-11-04T16:00:06.402Z,75.71
2022-11-04T16:02:46.941Z,75.07
2022-11-04T16:05:27.498Z,74.38
2022-11-04T16:08:14.107Z,73.92
2022-11-04T16:10:41.975Z,75.07
2022-11-04T16:13:22.852Z,76.72
2022-11-04T16:16:06.805Z,75.36
2022-11-04T16:18:38.560Z,77.11
2022-11-04T16:21:12.405Z,76.13
2022-11-04T16:23:47.352Z,76.03
2022-11-04T16:26:15.096Z,76.94
2022-11-04T16:28:42.852Z,77.21
2022-11-04T16:31:27.047Z,78.98
2022-11-04T16:33:54.442Z,79.20
2022-11-04T16:36:22.769Z,79.17
2022-11-04T16:38:53.251Z,79.03
2022-11-04T16:41:20.299Z,78.74
2022-11-04T16:43:49.225Z,78.97
2022-11-04T16:46:18.422Z,81.87
2022-11-04T16:48:45.190Z,80.63
2022-11-04T16:51:18.251Z,78.06
2022-11-04T16:53:50.400Z,78.18
2022-11-04T16:56:19.940Z,80.93
2022-11-04T16:58:47.004Z,79.75
2022-11-04T17:01:15.234Z,81.41
2022-11-04T17:03:42.972Z,82.90
2022-11-04T17:06:12.418Z,81.99
2022-11-04T17:08:39.908Z,79.60
2022-11-04T17:11:08.927Z,79.88
2022-11-04T17:13:36.763Z,79.29
2022-11-04T17:16:05.317Z,77.33
2022-11-04T17:18:34.449Z,79.92
2022-11-04T17:21:07.043Z,80.46
2022-11-04T17:23:34.121Z,81.45
2022-11-04T17:26:01.654Z,79.59
2022-11-04T17:28:29.770Z,77.40
2022-11-04T17:30:57.184Z,77.78
2022-11-04T17:33:24.082Z,77.39
2022-11-04T17:35:51.594Z,78.80
2022-11-04T17:38:19.606Z,77.87
2022-11-04T17:40:46.833Z,78.81
2022-11-04T17:43:14.088Z,78.44
2022-11-04T17:45:43.311Z,78.15
2022-11-04T17:48:10.635Z,77.03
2022-11-04T17:50:39.782Z,78.03
2022-11-04T17:53:07.416Z,80.26
2022-11-04T17:55:38.750Z,81.66
2022-11-04T17:58:05.810Z,81.90
2022-11-04T18:00:32.659Z,81.71
2022-11-04T18:03:00.973Z,81.45
2022-11-04T18:05:27.965Z,81.75
2022-11-04T18:07:54.784Z,82.74
2022-11-04T18:10:21.853Z,83.70
2022-11-04T18:12:48.872Z,80.69
2022-11-04T18:15:15.902Z,81.39
2022-11-04T18:17:45.005Z,81.80
2022-11-04T18:20:15.727Z,81.06
2022-11-04T18:22:45.774Z,80.92
2022-11-04T18:25:13.008Z,81.52
2022-11-04T18:27:40.439Z,80.07
2022-11-04T18:30:09.218Z,79.91
2022-11-04T18:32:36.083Z,80.90
2022-11-04T18:35:09.467Z,80.63
2022-11-04T18:37:37.593Z,80.04
2022-11-04T18:40:05.865Z,79.47
2022-11-04T18:42:33.008Z,78.98
2022-11-04T18:44:59.825Z,78.69
2022-11-04T18:47:26.858Z,78.18
2022-11-04T18:49:54.331Z,77.90
2022-11-04T18:52:21.278Z,78.67
2022-11-04T18:54:49.929Z,77.81
2022-11-04T18:57:16.630Z,78.07
2022-11-04T18:59:43.393Z,78.06
2022-11-04T19:02:19.873Z,77.81
2022-11-04T19:04:46.896Z,77.02
2022-11-04T19:07:13.754Z,77.00
2022-11-04T19:09:46.558Z,77.20
2022-11-04T19:12:15.309Z,77.37
2022-11-04T19:14:44.218Z,76.93
2022-11-04T19:17:11.435Z,77.46
2022-11-04T19:20:04.250Z,78.24
2022-11-04T19:22:35.390Z,78.38
2022-11-04T19:25:07.476Z,78.31
2022-11-04T19:27:43.987Z,78.39
2022-11-04T19:30:21.393Z,79.42
2022-11-04T19:32:48.569Z,78.94
2022-11-04T19:35:15.667Z,79.60
2022-11-04T19:37:42.738Z,79.37
2022-11-04T19:40:11.248Z,80.05
2022-11-04T19:42:39.483Z,80.65
2022-11-04T19:45:07.790Z,80.03
2022-11-04T19:47:34.958Z,80.76
2022-11-04T19:50:02.306Z,80.14
2022-11-04T19:52:30.536Z,81.58
2022-11-04T19:54:57.357Z,80.84
2022-11-04T19:57:24.187Z,81.46
2022-11-04T19:59:52.429Z,81.10
2022-11-04T20:02:19.839Z,81.54
2022-11-04T20:04:46.712Z,83.94
2022-11-04T20:07:13.814Z,85.66
2022-11-04T20:09:41.256Z,86.19
2022-11-04T20:12:08.824Z,85.93
2022-11-04T20:14:35.943Z,86.56
2022-11-04T20:17:06.827Z,86.06
2022-11-04T20:19:35.999Z,85.19
2022-11-04T20:22:03.200Z,85.69
2022-11-04T20:24:30.210Z,84.32
2022-11-04T20:26:57.759Z,84.94
2022-11-04T20:29:24.934Z,84.33
2022-11-04T20:31:51.715Z,85.00
2022-11-04T20:34:20.056Z,85.91
2022-11-04T20:36:46.894Z,87.24
2022-11-04T20:39:16.711Z,87.77
2022-11-04T20:41:44.753Z,88.10
2022-11-04T20:44:12.991Z,88.99
2022-11-04T20:46:40.315Z,89.09
2022-11-04T20:49:07.627Z,89.32
2022-11-04T20:51:40.674Z,89.38
2022-11-04T20:54:07.733Z,88.38
2022-11-04T20:56:39.050Z,89.54
2022-11-04T20:59:07.321Z,90.11
2022-11-04T21:01:37.914Z,90.59
2022-11-04T21:04:08.184Z,90.94
2022-11-04T21:06:38.702Z,90.91
2022-11-04T21:09:09.744Z,90.96
2022-11-04T21:11:36.701Z,91.13
2022-11-04T21:14:07.646Z,90.25
2022-11-04T21:16:35.891Z,90.86
2022-11-04T21:19:04.178Z,90.84
2022-11-04T21:21:31.617Z,91.03
2022-11-04T21:24:02.910Z,91.19
2022-11-04T21:26:32.674Z,91.19
2022-11-04T21:29:02.026Z,90.08
2022-11-04T21:31:31.756Z,89.63
2022-11-04T21:33:59.412Z,89.73
2022-11-04T21:36:26.476Z,87.56
2022-11-04T21:38:53.248Z,87.78
2022-11-04T21:41:24.741Z,87.35
2022-11-04T21:43:54.089Z,87.60
2022-11-04T21:46:20.881Z,87.79
2022-11-04T21:48:48.103Z,87.70
2022-11-04T21:51:17.744Z,87.71
2022-11-04T21:53:45.032Z,87.42
2022-11-04T21:56:15.210Z,87.83
2022-11-04T21:58:44.971Z,88.41
2022-11-04T22:01:15.666Z,89.72
2022-11-04T22:03:42.978Z,89.30
2022-11-04T22:06:13.526Z,88.30
2022-11-04T22:08:45.350Z,87.94
2022-11-04T22:11:16.034Z,88.22
2022-11-04T22:13:44.872Z,88.59
2022-11-04T22:16:13.226Z,87.49
2022-11-04T22:18:40.887Z,86.66
2022-11-04T22:21:11.894Z,87.37
2022-11-04T22:23:39.148Z,86.97
2022-11-04T22:26:10.823Z,87.46
2022-11-04T22:28:37.880Z,86.70
2022-11-04T22:31:08.306Z,87.16
2022-11-04T22:33:35.972Z,86.33
2022-11-04T22:36:02.931Z,87.47
2022-11-04T22:38:31.330Z,87.08
2022-11-04T22:41:00.761Z,86.40
2022-11-04T22:43:28.004Z,86.30
2022-11-04T22:45:57.031Z,86.91
2022-11-04T22:48:25.492Z,86.18
2022-11-04T22:50:58.750Z,86.73
2022-11-04T22:53:26.155Z,87.69
2022-11-04T22:55:53.563Z,87.83
2022-11-04T22:58:20.596Z,89.21
2022-11-04T23:00:55.741Z,89.26
2022-11-04T23:03:22.939Z,89.35
2022-11-04T23:05:55.756Z,89.85
2022-11-04T23:08:25.041Z,89.22
2022-11-04T23:10:56.881Z,89.05
2022-11-04T23:13:23.669Z,88.16
2022-11-04T23:15:50.478Z,88.51
2022-11-04T23:18:17.572Z,88.95
2022-11-04T23:20:44.279Z,88.05
2022-11-04T23:23:12.691Z,88.52
2022-11-04T23:25:40.199Z,88.43
2022-11-04T23:28:06.927Z,88.53
2022-11-04T23:30:36.319Z,87.47
2022-11-04T23:33:05.897Z,88.01
2022-11-04T23:35:36.125Z,87.44
2022-11-04T23:38:03.210Z,87.22
2022-11-04T23:40:32.458Z,87.83
2022-11-04T23:42:59.560Z,87.28
2022-11-04T23:45:26.617Z,86.40
2022-11-04T23:47:56.109Z,86.85
2022-11-04T23:50:25.473Z,87.53
2022-11-04T23:52:52.279Z,87.08
2022-11-04T23:55:19.059Z,87.51
2022-11-04T23:57:47.388Z,88.46
